sensor_id;sensor_type;location;lat;lon;timestamp;temperature;humidity
3504;DHT22;1766;53.490;10.174;2022-08-01T00:02:01;25.50;57.80
3504;DHT22;1766;53.490;10.174;2022-08-01T00:04:03;25.50;57.80
3504;DHT22;1766;53.490;10.174;2022-08-01T00:06:05;25.50;57.90
3504;DHT22;1766;53.490;10.174;2022-08-01T00:08:07;25.50;57.90
3504;DHT22;1766;53.490;10.174;2022-08-01T00:10:12;25.50;58.10
3504;DHT22;1766;53.490;10.174;2022-08-01T00:12:14;25.40;58.30
3504;DHT22;1766;53.490;10.174;2022-08-01T00:14:16;25.50;58.20
3504;DHT22;1766;53.490;10.174;2022-08-01T00:16:18;25.40;58.30
3504;DHT22;1766;53.490;10.174;2022-08-01T00:18:22;25.40;58.40
3504;DHT22;1766;53.490;10.174;2022-08-01T00:20:33;25.40;58.90
3504;DHT22;1766;53.490;10.174;2022-08-01T00:22:35;25.50;58.40
3504;DHT22;1766;53.490;10.174;2022-08-01T00:24:37;25.40;58.40
3504;DHT22;1766;53.490;10.174;2022-08-01T00:26:40;25.40;58.40
3504;DHT22;1766;53.490;10.174;2022-08-01T00:28:42;25.40;58.50
3504;DHT22;1766;53.490;10.174;2022-08-01T00:30:44;25.40;58.60
3504;DHT22;1766;53.490;10.174;2022-08-01T00:32:46;25.40;58.60
3504;DHT22;1766;53.490;10.174;2022-08-01T00:34:48;25.40;58.70
3504;DHT22;1766;53.490;10.174;2022-08-01T00:36:49;25.50;58.70
3504;DHT22;1766;53.490;10.174;2022-08-01T00:38:51;25.50;58.60
3504;DHT22;1766;53.490;10.174;2022-08-01T00:40:53;25.50;58.50
3504;DHT22;1766;53.490;10.174;2022-08-01T00:42:56;25.60;58.50
3504;DHT22;1766;53.490;10.174;2022-08-01T00:44:58;25.50;58.30
3504;DHT22;1766;53.490;10.174;2022-08-01T00:47:00;25.50;58.40
3504;DHT22;1766;53.490;10.174;2022-08-01T00:49:02;25.50;58.40
3504;DHT22;1766;53.490;10.174;2022-08-01T00:51:05;25.40;58.40
3504;DHT22;1766;53.490;10.174;2022-08-01T00:53:07;25.50;58.50
3504;DHT22;1766;53.490;10.174;2022-08-01T00:55:10;25.50;58.50
3504;DHT22;1766;53.490;10.174;2022-08-01T00:57:13;25.40;58.40
3504;DHT22;1766;53.490;10.174;2022-08-01T00:59:18;25.40;58.30
3504;DHT22;1766;53.490;10.174;2022-08-01T01:01:22;25.50;58.60
3504;DHT22;1766;53.490;10.174;2022-08-01T01:03:24;25.40;58.60
3504;DHT22;1766;53.490;10.174;2022-08-01T01:05:26;25.30;58.40
3504;DHT22;1766;53.490;10.174;2022-08-01T01:07:32;25.30;58.50
3504;DHT22;1766;53.490;10.174;2022-08-01T01:09:42;25.30;58.80
3504;DHT22;1766;53.490;10.174;2022-08-01T01:11:52;25.30;58.60
3504;DHT22;1766;53.490;10.174;2022-08-01T01:14:04;25.30;58.60
3504;DHT22;1766;53.490;10.174;2022-08-01T01:16:13;25.30;58.60
3504;DHT22;1766;53.490;10.174;2022-08-01T01:18:20;25.30;58.60
3504;DHT22;1766;53.490;10.174;2022-08-01T01:20:28;25.40;58.80
3504;DHT22;1766;53.490;10.174;2022-08-01T01:22:47;25.30;58.70
3504;DHT22;1766;53.490;10.174;2022-08-01T01:25:07;25.30;58.90
3504;DHT22;1766;53.490;10.174;2022-08-01T01:27:24;25.30;58.90
3504;DHT22;1766;53.490;10.174;2022-08-01T01:29:37;25.30;58.80
3504;DHT22;1766;53.490;10.174;2022-08-01T01:31:46;25.30;58.70
3504;DHT22;1766;53.490;10.174;2022-08-01T01:33:50;25.30;58.70
3504;DHT22;1766;53.490;10.174;2022-08-01T01:36:05;25.30;58.80
3504;DHT22;1766;53.490;10.174;2022-08-01T01:38:14;25.30;58.80
3504;DHT22;1766;53.490;10.174;2022-08-01T01:40:20;25.40;58.80
3504;DHT22;1766;53.490;10.174;2022-08-01T01:42:24;25.40;58.70
3504;DHT22;1766;53.490;10.174;2022-08-01T01:44:27;25.40;58.70
3504;DHT22;1766;53.490;10.174;2022-08-01T01:46:31;25.40;58.80
3504;DHT22;1766;53.490;10.174;2022-08-01T01:48:35;25.30;58.80
3504;DHT22;1766;53.490;10.174;2022-08-01T01:50:38;25.40;58.70
3504;DHT22;1766;53.490;10.174;2022-08-01T01:52:42;25.50;58.80
3504;DHT22;1766;53.490;10.174;2022-08-01T01:54:48;25.40;58.90
3504;DHT22;1766;53.490;10.174;2022-08-01T01:56:52;25.30;58.80
3504;DHT22;1766;53.490;10.174;2022-08-01T01:59:01;25.40;58.70
3504;DHT22;1766;53.490;10.174;2022-08-01T02:01:04;25.30;58.70
3504;DHT22;1766;53.490;10.174;2022-08-01T02:03:10;25.40;58.70
3504;DHT22;1766;53.490;10.174;2022-08-01T02:05:13;25.30;58.70
3504;DHT22;1766;53.490;10.174;2022-08-01T02:07:20;25.30;58.70
3504;DHT22;1766;53.490;10.174;2022-08-01T02:09:23;25.30;58.80
3504;DHT22;1766;53.490;10.174;2022-08-01T02:11:28;25.30;58.80
3504;DHT22;1766;53.490;10.174;2022-08-01T02:13:30;25.30;58.80
3504;DHT22;1766;53.490;10.174;2022-08-01T02:15:35;25.30;58.90
3504;DHT22;1766;53.490;10.174;2022-08-01T02:17:43;25.30;59.00
3504;DHT22;1766;53.490;10.174;2022-08-01T02:19:47;25.30;58.90
3504;DHT22;1766;53.490;10.174;2022-08-01T02:21:55;25.30;58.70
3504;DHT22;1766;53.490;10.174;2022-08-01T02:24:03;25.30;59.00
3504;DHT22;1766;53.490;10.174;2022-08-01T02:26:15;25.20;58.90
3504;DHT22;1766;53.490;10.174;2022-08-01T02:28:21;25.30;58.80
3504;DHT22;1766;53.490;10.174;2022-08-01T02:30:32;25.30;58.90
3504;DHT22;1766;53.490;10.174;2022-08-01T02:32:38;25.30;58.90
3504;DHT22;1766;53.490;10.174;2022-08-01T02:34:47;25.30;58.90
3504;DHT22;1766;53.490;10.174;2022-08-01T02:36:51;25.30;58.90
3504;DHT22;1766;53.490;10.174;2022-08-01T02:38:55;25.30;58.90
3504;DHT22;1766;53.490;10.174;2022-08-01T02:41:05;25.20;58.90
3504;DHT22;1766;53.490;10.174;2022-08-01T02:43:10;25.20;58.90
3504;DHT22;1766;53.490;10.174;2022-08-01T02:45:13;25.30;58.90
3504;DHT22;1766;53.490;10.174;2022-08-01T02:47:19;25.30;58.80
3504;DHT22;1766;53.490;10.174;2022-08-01T02:49:23;25.30;58.90
3504;DHT22;1766;53.490;10.174;2022-08-01T02:51:30;25.30;58.70
3504;DHT22;1766;53.490;10.174;2022-08-01T02:53:34;25.30;58.60
3504;DHT22;1766;53.490;10.174;2022-08-01T02:55:40;25.30;58.60
3504;DHT22;1766;53.490;10.174;2022-08-01T02:57:44;25.30;58.60
3504;DHT22;1766;53.490;10.174;2022-08-01T02:59:49;25.40;58.70
3504;DHT22;1766;53.490;10.174;2022-08-01T03:01:54;25.30;58.40
3504;DHT22;1766;53.490;10.174;2022-08-01T03:03:57;25.40;58.60
3504;DHT22;1766;53.490;10.174;2022-08-01T03:06:01;25.30;58.40
3504;DHT22;1766;53.490;10.174;2022-08-01T03:08:06;25.40;58.60
3504;DHT22;1766;53.490;10.174;2022-08-01T03:10:10;25.30;58.60
3504;DHT22;1766;53.490;10.174;2022-08-01T03:12:15;25.30;58.50
3504;DHT22;1766;53.490;10.174;2022-08-01T03:14:20;25.50;58.60
3504;DHT22;1766;53.490;10.174;2022-08-01T03:16:24;25.40;58.50
3504;DHT22;1766;53.490;10.174;2022-08-01T03:18:28;25.40;58.30
3504;DHT22;1766;53.490;10.174;2022-08-01T03:20:32;25.40;58.30
3504;DHT22;1766;53.490;10.174;2022-08-01T03:22:35;25.30;58.30
3504;DHT22;1766;53.490;10.174;2022-08-01T03:24:40;25.30;58.40
3504;DHT22;1766;53.490;10.174;2022-08-01T03:26:44;25.30;58.50
3504;DHT22;1766;53.490;10.174;2022-08-01T03:28:46;25.30;58.50
3504;DHT22;1766;53.490;10.174;2022-08-01T03:30:50;25.30;58.50
3504;DHT22;1766;53.490;10.174;2022-08-01T03:32:52;25.30;58.50
3504;DHT22;1766;53.490;10.174;2022-08-01T03:34:54;25.30;58.50
3504;DHT22;1766;53.490;10.174;2022-08-01T03:37:01;25.30;58.40
3504;DHT22;1766;53.490;10.174;2022-08-01T03:39:05;25.30;58.60
3504;DHT22;1766;53.490;10.174;2022-08-01T03:41:13;25.30;58.60
3504;DHT22;1766;53.490;10.174;2022-08-01T03:43:20;25.30;58.50
3504;DHT22;1766;53.490;10.174;2022-08-01T03:45:27;25.40;58.50
3504;DHT22;1766;53.490;10.174;2022-08-01T03:47:33;25.40;58.40
3504;DHT22;1766;53.490;10.174;2022-08-01T03:49:42;25.30;58.50
3504;DHT22;1766;53.490;10.174;2022-08-01T03:51:47;25.30;58.40
3504;DHT22;1766;53.490;10.174;2022-08-01T03:53:51;25.30;58.50
3504;DHT22;1766;53.490;10.174;2022-08-01T03:55:55;25.30;58.50
3504;DHT22;1766;53.490;10.174;2022-08-01T03:57:59;25.30;58.40
3504;DHT22;1766;53.490;10.174;2022-08-01T04:00:03;25.30;58.50
3504;DHT22;1766;53.490;10.174;2022-08-01T04:02:08;25.30;58.50
3504;DHT22;1766;53.490;10.174;2022-08-01T04:04:10;25.30;58.40
3504;DHT22;1766;53.490;10.174;2022-08-01T04:06:12;25.30;58.40
3504;DHT22;1766;53.490;10.174;2022-08-01T04:08:14;25.40;58.50
3504;DHT22;1766;53.490;10.174;2022-08-01T04:10:16;25.30;58.40
3504;DHT22;1766;53.490;10.174;2022-08-01T04:12:18;25.30;58.40
3504;DHT22;1766;53.490;10.174;2022-08-01T04:14:22;25.30;58.50
3504;DHT22;1766;53.490;10.174;2022-08-01T04:16:24;25.40;58.50
3504;DHT22;1766;53.490;10.174;2022-08-01T04:18:26;25.40;58.50
3504;DHT22;1766;53.490;10.174;2022-08-01T04:20:28;25.40;58.40
3504;DHT22;1766;53.490;10.174;2022-08-01T04:22:30;25.40;58.40
3504;DHT22;1766;53.490;10.174;2022-08-01T04:24:33;25.40;58.20
3504;DHT22;1766;53.490;10.174;2022-08-01T04:26:37;25.40;58.40
3504;DHT22;1766;53.490;10.174;2022-08-01T04:28:42;25.40;58.40
3504;DHT22;1766;53.490;10.174;2022-08-01T04:30:48;25.50;58.40
3504;DHT22;1766;53.490;10.174;2022-08-01T04:32:54;25.50;58.40
3504;DHT22;1766;53.490;10.174;2022-08-01T04:34:58;25.50;58.40
3504;DHT22;1766;53.490;10.174;2022-08-01T04:37:01;25.50;58.30
3504;DHT22;1766;53.490;10.174;2022-08-01T04:39:04;25.50;58.40
3504;DHT22;1766;53.490;10.174;2022-08-01T04:41:10;25.50;58.40
3504;DHT22;1766;53.490;10.174;2022-08-01T04:43:14;25.40;58.40
3504;DHT22;1766;53.490;10.174;2022-08-01T04:45:16;25.50;58.50
3504;DHT22;1766;53.490;10.174;2022-08-01T04:47:23;25.50;58.50
3504;DHT22;1766;53.490;10.174;2022-08-01T04:49:25;25.50;58.50
3504;DHT22;1766;53.490;10.174;2022-08-01T04:51:29;25.70;58.40
3504;DHT22;1766;53.490;10.174;2022-08-01T04:53:31;25.60;58.50
3504;DHT22;1766;53.490;10.174;2022-08-01T04:55:33;25.60;58.50
3504;DHT22;1766;53.490;10.174;2022-08-01T04:57:39;25.60;58.50
3504;DHT22;1766;53.490;10.174;2022-08-01T04:59:45;25.60;58.50
3504;DHT22;1766;53.490;10.174;2022-08-01T05:01:50;25.60;58.40
3504;DHT22;1766;53.490;10.174;2022-08-01T05:03:53;25.70;58.40
3504;DHT22;1766;53.490;10.174;2022-08-01T05:05:55;25.70;58.20
3504;DHT22;1766;53.490;10.174;2022-08-01T05:07:56;25.60;58.10
3504;DHT22;1766;53.490;10.174;2022-08-01T05:09:58;25.70;58.20
3504;DHT22;1766;53.490;10.174;2022-08-01T05:12:03;25.70;58.20
3504;DHT22;1766;53.490;10.174;2022-08-01T05:14:06;25.70;58.30
3504;DHT22;1766;53.490;10.174;2022-08-01T05:16:08;25.70;58.20
3504;DHT22;1766;53.490;10.174;2022-08-01T05:18:10;25.80;58.40
3504;DHT22;1766;53.490;10.174;2022-08-01T05:20:13;25.80;58.30
3504;DHT22;1766;53.490;10.174;2022-08-01T05:22:15;25.80;58.20
3504;DHT22;1766;53.490;10.174;2022-08-01T05:24:17;25.80;58.20
3504;DHT22;1766;53.490;10.174;2022-08-01T05:26:19;25.90;58.20
3504;DHT22;1766;53.490;10.174;2022-08-01T05:28:20;26.00;58.10
3504;DHT22;1766;53.490;10.174;2022-08-01T05:30:22;26.00;57.80
3504;DHT22;1766;53.490;10.174;2022-08-01T05:32:24;26.00;57.80
3504;DHT22;1766;53.490;10.174;2022-08-01T05:34:26;26.00;57.70
3504;DHT22;1766;53.490;10.174;2022-08-01T05:36:29;26.00;57.40
3504;DHT22;1766;53.490;10.174;2022-08-01T05:38:31;25.90;57.30
3504;DHT22;1766;53.490;10.174;2022-08-01T05:40:33;25.80;57.10
3504;DHT22;1766;53.490;10.174;2022-08-01T05:42:35;25.70;57.20
3504;DHT22;1766;53.490;10.174;2022-08-01T05:44:37;25.70;57.00
3504;DHT22;1766;53.490;10.174;2022-08-01T05:46:39;25.60;57.20
3504;DHT22;1766;53.490;10.174;2022-08-01T05:48:41;25.50;57.20
3504;DHT22;1766;53.490;10.174;2022-08-01T05:50:42;25.60;57.20
3504;DHT22;1766;53.490;10.174;2022-08-01T05:52:45;25.70;57.30
3504;DHT22;1766;53.490;10.174;2022-08-01T05:54:47;25.60;57.10
3504;DHT22;1766;53.490;10.174;2022-08-01T05:56:49;25.70;57.20
3504;DHT22;1766;53.490;10.174;2022-08-01T05:58:52;25.80;57.20
3504;DHT22;1766;53.490;10.174;2022-08-01T06:00:54;25.80;57.20
3504;DHT22;1766;53.490;10.174;2022-08-01T06:02:56;25.90;56.90
3504;DHT22;1766;53.490;10.174;2022-08-01T06:04:58;25.90;57.10
3504;DHT22;1766;53.490;10.174;2022-08-01T06:07:00;26.00;57.00
3504;DHT22;1766;53.490;10.174;2022-08-01T06:09:03;26.10;56.90
3504;DHT22;1766;53.490;10.174;2022-08-01T06:11:05;26.10;56.70
3504;DHT22;1766;53.490;10.174;2022-08-01T06:13:07;26.20;56.70
3504;DHT22;1766;53.490;10.174;2022-08-01T06:15:09;26.70;56.80
3504;DHT22;1766;53.490;10.174;2022-08-01T06:17:12;26.20;56.50
3504;DHT22;1766;53.490;10.174;2022-08-01T06:19:13;26.20;56.40
3504;DHT22;1766;53.490;10.174;2022-08-01T06:21:15;26.30;56.40
3504;DHT22;1766;53.490;10.174;2022-08-01T06:23:17;26.30;56.20
3504;DHT22;1766;53.490;10.174;2022-08-01T06:25:20;26.40;56.10
3504;DHT22;1766;53.490;10.174;2022-08-01T06:27:22;26.40;56.00
3504;DHT22;1766;53.490;10.174;2022-08-01T06:29:25;26.50;55.80
3504;DHT22;1766;53.490;10.174;2022-08-01T06:31:27;26.60;55.60
3504;DHT22;1766;53.490;10.174;2022-08-01T06:33:29;26.60;55.30
3504;DHT22;1766;53.490;10.174;2022-08-01T06:35:31;26.60;55.30
3504;DHT22;1766;53.490;10.174;2022-08-01T06:37:33;26.60;55.10
3504;DHT22;1766;53.490;10.174;2022-08-01T06:39:35;26.60;55.00
3504;DHT22;1766;53.490;10.174;2022-08-01T06:41:40;26.60;54.90
3504;DHT22;1766;53.490;10.174;2022-08-01T06:43:47;26.60;55.00
3504;DHT22;1766;53.490;10.174;2022-08-01T06:45:50;26.60;54.70
3504;DHT22;1766;53.490;10.174;2022-08-01T06:47:52;26.70;54.60
3504;DHT22;1766;53.490;10.174;2022-08-01T06:49:54;26.70;54.60
3504;DHT22;1766;53.490;10.174;2022-08-01T06:51:57;26.80;54.50
3504;DHT22;1766;53.490;10.174;2022-08-01T06:53:58;26.80;54.30
3504;DHT22;1766;53.490;10.174;2022-08-01T06:56:00;26.90;54.10
3504;DHT22;1766;53.490;10.174;2022-08-01T06:58:03;26.90;54.10
3504;DHT22;1766;53.490;10.174;2022-08-01T07:00:06;27.20;53.90
3504;DHT22;1766;53.490;10.174;2022-08-01T07:02:11;27.10;53.60
3504;DHT22;1766;53.490;10.174;2022-08-01T07:04:13;27.00;53.20
3504;DHT22;1766;53.490;10.174;2022-08-01T07:06:15;27.00;53.40
3504;DHT22;1766;53.490;10.174;2022-08-01T07:08:17;27.00;53.10
3504;DHT22;1766;53.490;10.174;2022-08-01T07:10:19;27.00;52.80
3504;DHT22;1766;53.490;10.174;2022-08-01T07:12:20;27.00;52.60
3504;DHT22;1766;53.490;10.174;2022-08-01T07:14:24;26.90;52.70
3504;DHT22;1766;53.490;10.174;2022-08-01T07:16:25;27.00;52.80
3504;DHT22;1766;53.490;10.174;2022-08-01T07:18:27;27.00;52.60
3504;DHT22;1766;53.490;10.174;2022-08-01T07:20:29;27.10;52.50
3504;DHT22;1766;53.490;10.174;2022-08-01T07:22:31;27.20;52.70
3504;DHT22;1766;53.490;10.174;2022-08-01T07:24:33;27.30;52.50
3504;DHT22;1766;53.490;10.174;2022-08-01T07:26:35;27.30;52.10
3504;DHT22;1766;53.490;10.174;2022-08-01T07:28:37;27.30;52.00
3504;DHT22;1766;53.490;10.174;2022-08-01T07:30:40;27.30;51.50
3504;DHT22;1766;53.490;10.174;2022-08-01T07:32:42;27.30;51.30
3504;DHT22;1766;53.490;10.174;2022-08-01T07:34:44;27.30;51.20
3504;DHT22;1766;53.490;10.174;2022-08-01T07:36:46;27.10;51.50
3504;DHT22;1766;53.490;10.174;2022-08-01T07:38:48;27.10;51.10
3504;DHT22;1766;53.490;10.174;2022-08-01T07:40:50;27.10;51.20
3504;DHT22;1766;53.490;10.174;2022-08-01T07:42:52;27.20;51.10
3504;DHT22;1766;53.490;10.174;2022-08-01T07:44:53;27.20;50.80
3504;DHT22;1766;53.490;10.174;2022-08-01T07:46:56;27.20;50.80
3504;DHT22;1766;53.490;10.174;2022-08-01T07:48:58;27.20;50.50
3504;DHT22;1766;53.490;10.174;2022-08-01T07:51:00;27.20;50.20
3504;DHT22;1766;53.490;10.174;2022-08-01T07:53:02;27.20;50.20
3504;DHT22;1766;53.490;10.174;2022-08-01T07:55:05;27.20;50.20
3504;DHT22;1766;53.490;10.174;2022-08-01T07:57:08;27.20;50.30
3504;DHT22;1766;53.490;10.174;2022-08-01T07:59:10;27.20;50.00
3504;DHT22;1766;53.490;10.174;2022-08-01T08:01:12;27.30;50.10
3504;DHT22;1766;53.490;10.174;2022-08-01T08:03:15;27.20;49.80
3504;DHT22;1766;53.490;10.174;2022-08-01T08:05:17;27.20;49.60
3504;DHT22;1766;53.490;10.174;2022-08-01T08:07:20;27.20;49.50
3504;DHT22;1766;53.490;10.174;2022-08-01T08:09:22;27.10;49.30
3504;DHT22;1766;53.490;10.174;2022-08-01T08:11:24;27.10;49.30
3504;DHT22;1766;53.490;10.174;2022-08-01T08:13:26;27.10;49.40
3504;DHT22;1766;53.490;10.174;2022-08-01T08:15:28;27.10;49.50
3504;DHT22;1766;53.490;10.174;2022-08-01T08:17:30;27.10;49.50
3504;DHT22;1766;53.490;10.174;2022-08-01T08:19:33;27.20;49.40
3504;DHT22;1766;53.490;10.174;2022-08-01T08:21:38;27.30;49.40
3504;DHT22;1766;53.490;10.174;2022-08-01T08:23:40;27.40;49.30
3504;DHT22;1766;53.490;10.174;2022-08-01T08:25:55;27.50;49.20
3504;DHT22;1766;53.490;10.174;2022-08-01T08:27:57;27.50;49.10
3504;DHT22;1766;53.490;10.174;2022-08-01T08:29:59;27.50;48.40
3504;DHT22;1766;53.490;10.174;2022-08-01T08:32:01;27.50;48.50
3504;DHT22;1766;53.490;10.174;2022-08-01T08:34:03;27.60;48.60
3504;DHT22;1766;53.490;10.174;2022-08-01T08:36:06;27.80;48.60
3504;DHT22;1766;53.490;10.174;2022-08-01T08:38:09;27.80;48.20
3504;DHT22;1766;53.490;10.174;2022-08-01T08:40:11;27.90;47.80
3504;DHT22;1766;53.490;10.174;2022-08-01T08:42:13;27.90;47.70
3504;DHT22;1766;53.490;10.174;2022-08-01T08:44:15;28.00;47.30
3504;DHT22;1766;53.490;10.174;2022-08-01T08:46:19;28.00;47.30
3504;DHT22;1766;53.490;10.174;2022-08-01T08:48:22;28.00;47.00
3504;DHT22;1766;53.490;10.174;2022-08-01T08:50:25;28.00;46.70
3504;DHT22;1766;53.490;10.174;2022-08-01T08:52:29;28.00;46.40
3504;DHT22;1766;53.490;10.174;2022-08-01T08:54:32;27.90;46.20
3504;DHT22;1766;53.490;10.174;2022-08-01T08:56:35;27.90;46.10
3504;DHT22;1766;53.490;10.174;2022-08-01T08:58:37;27.90;45.70
3504;DHT22;1766;53.490;10.174;2022-08-01T09:00:40;28.00;45.60
3504;DHT22;1766;53.490;10.174;2022-08-01T09:02:43;27.90;44.80
3504;DHT22;1766;53.490;10.174;2022-08-01T09:04:47;27.80;44.80
3504;DHT22;1766;53.490;10.174;2022-08-01T09:06:50;27.70;44.40
3504;DHT22;1766;53.490;10.174;2022-08-01T09:08:53;27.70;44.30
3504;DHT22;1766;53.490;10.174;2022-08-01T09:10:55;27.50;43.90
3504;DHT22;1766;53.490;10.174;2022-08-01T09:13:07;27.60;44.10
3504;DHT22;1766;53.490;10.174;2022-08-01T09:15:11;27.60;44.40
3504;DHT22;1766;53.490;10.174;2022-08-01T09:17:13;27.70;44.40
3504;DHT22;1766;53.490;10.174;2022-08-01T09:19:19;27.80;44.30
3504;DHT22;1766;53.490;10.174;2022-08-01T09:21:22;27.90;44.30
3504;DHT22;1766;53.490;10.174;2022-08-01T09:23:33;28.10;44.30
3504;DHT22;1766;53.490;10.174;2022-08-01T09:28:05;28.10;44.00
3504;DHT22;1766;53.490;10.174;2022-08-01T09:30:09;28.20;43.60
3504;DHT22;1766;53.490;10.174;2022-08-01T09:32:12;28.30;43.70
3504;DHT22;1766;53.490;10.174;2022-08-01T09:34:14;28.40;43.40
3504;DHT22;1766;53.490;10.174;2022-08-01T09:36:17;28.40;42.90
3504;DHT22;1766;53.490;10.174;2022-08-01T09:38:20;28.40;42.70
3504;DHT22;1766;53.490;10.174;2022-08-01T09:40:23;28.30;42.30
3504;DHT22;1766;53.490;10.174;2022-08-01T09:42:26;28.30;42.10
3504;DHT22;1766;53.490;10.174;2022-08-01T09:44:40;28.20;42.00
3504;DHT22;1766;53.490;10.174;2022-08-01T09:46:52;28.20;41.90
3504;DHT22;1766;53.490;10.174;2022-08-01T09:48:56;28.20;41.70
3504;DHT22;1766;53.490;10.174;2022-08-01T09:50:59;28.30;41.60
3504;DHT22;1766;53.490;10.174;2022-08-01T09:53:01;28.20;41.20
3504;DHT22;1766;53.490;10.174;2022-08-01T09:55:05;28.10;40.90
3504;DHT22;1766;53.490;10.174;2022-08-01T09:57:09;28.10;41.00
3504;DHT22;1766;53.490;10.174;2022-08-01T09:59:13;28.10;40.90
3504;DHT22;1766;53.490;10.174;2022-08-01T10:01:16;28.00;40.50
3504;DHT22;1766;53.490;10.174;2022-08-01T10:03:19;28.00;40.30
3504;DHT22;1766;53.490;10.174;2022-08-01T10:05:30;27.90;40.30
3504;DHT22;1766;53.490;10.174;2022-08-01T10:07:33;27.90;40.30
3504;DHT22;1766;53.490;10.174;2022-08-01T10:09:36;27.90;39.90
3504;DHT22;1766;53.490;10.174;2022-08-01T10:11:40;27.90;39.80
3504;DHT22;1766;53.490;10.174;2022-08-01T10:13:43;27.90;39.80
3504;DHT22;1766;53.490;10.174;2022-08-01T10:15:45;28.00;39.60
3504;DHT22;1766;53.490;10.174;2022-08-01T10:17:53;28.00;39.40
3504;DHT22;1766;53.490;10.174;2022-08-01T10:19:56;28.00;39.30
3504;DHT22;1766;53.490;10.174;2022-08-01T10:21:59;28.10;39.00
3504;DHT22;1766;53.490;10.174;2022-08-01T10:24:03;28.10;38.90
3504;DHT22;1766;53.490;10.174;2022-08-01T10:26:07;28.20;39.00
3504;DHT22;1766;53.490;10.174;2022-08-01T10:28:14;28.20;38.90
3504;DHT22;1766;53.490;10.174;2022-08-01T10:30:17;28.30;38.80
3504;DHT22;1766;53.490;10.174;2022-08-01T10:32:19;28.50;38.60
3504;DHT22;1766;53.490;10.174;2022-08-01T10:34:23;28.50;38.50
3504;DHT22;1766;53.490;10.174;2022-08-01T10:36:26;28.60;38.70
3504;DHT22;1766;53.490;10.174;2022-08-01T10:38:28;28.60;38.80
3504;DHT22;1766;53.490;10.174;2022-08-01T10:40:31;28.70;38.70
3504;DHT22;1766;53.490;10.174;2022-08-01T10:42:33;28.70;38.90
3504;DHT22;1766;53.490;10.174;2022-08-01T10:44:36;28.70;38.70
3504;DHT22;1766;53.490;10.174;2022-08-01T10:46:44;28.70;38.60
3504;DHT22;1766;53.490;10.174;2022-08-01T10:48:54;28.70;38.60
3504;DHT22;1766;53.490;10.174;2022-08-01T10:51:02;28.80;38.70
3504;DHT22;1766;53.490;10.174;2022-08-01T10:53:10;28.80;38.50
3504;DHT22;1766;53.490;10.174;2022-08-01T10:55:13;28.70;38.50
3504;DHT22;1766;53.490;10.174;2022-08-01T10:57:15;28.70;38.40
3504;DHT22;1766;53.490;10.174;2022-08-01T10:59:21;28.70;38.30
3504;DHT22;1766;53.490;10.174;2022-08-01T11:01:25;28.80;38.30
3504;DHT22;1766;53.490;10.174;2022-08-01T11:03:34;28.80;38.30
3504;DHT22;1766;53.490;10.174;2022-08-01T11:05:36;28.90;38.10
3504;DHT22;1766;53.490;10.174;2022-08-01T11:07:47;29.00;37.60
3504;DHT22;1766;53.490;10.174;2022-08-01T11:10:03;29.00;37.00
3504;DHT22;1766;53.490;10.174;2022-08-01T11:12:09;29.00;36.60
3504;DHT22;1766;53.490;10.174;2022-08-01T11:14:12;29.10;36.40
3504;DHT22;1766;53.490;10.174;2022-08-01T11:16:26;29.20;36.50
3504;DHT22;1766;53.490;10.174;2022-08-01T11:18:30;29.30;37.10
3504;DHT22;1766;53.490;10.174;2022-08-01T11:20:34;29.50;36.60
3504;DHT22;1766;53.490;10.174;2022-08-01T11:25:19;29.50;36.60
3504;DHT22;1766;53.490;10.174;2022-08-01T11:27:23;29.60;36.20
3504;DHT22;1766;53.490;10.174;2022-08-01T11:29:26;29.70;36.00
3504;DHT22;1766;53.490;10.174;2022-08-01T11:31:29;29.60;35.50
3504;DHT22;1766;53.490;10.174;2022-08-01T11:33:48;29.60;35.50
3504;DHT22;1766;53.490;10.174;2022-08-01T11:38:26;29.60;35.10
3504;DHT22;1766;53.490;10.174;2022-08-01T11:40:28;29.70;34.80
3504;DHT22;1766;53.490;10.174;2022-08-01T11:42:30;29.80;34.80
3504;DHT22;1766;53.490;10.174;2022-08-01T11:44:48;29.80;34.40
3504;DHT22;1766;53.490;10.174;2022-08-01T11:46:53;29.90;34.20
3504;DHT22;1766;53.490;10.174;2022-08-01T11:51:32;30.10;33.40
3504;DHT22;1766;53.490;10.174;2022-08-01T11:53:45;30.30;33.10
3504;DHT22;1766;53.490;10.174;2022-08-01T11:55:49;30.20;32.50
3504;DHT22;1766;53.490;10.174;2022-08-01T11:57:59;30.30;32.60
3504;DHT22;1766;53.490;10.174;2022-08-01T12:00:05;30.30;32.20
3504;DHT22;1766;53.490;10.174;2022-08-01T12:02:17;30.50;31.90
3504;DHT22;1766;53.490;10.174;2022-08-01T12:04:20;30.60;31.70
3504;DHT22;1766;53.490;10.174;2022-08-01T12:06:27;30.80;31.30
3504;DHT22;1766;53.490;10.174;2022-08-01T12:08:31;31.10;30.80
3504;DHT22;1766;53.490;10.174;2022-08-01T12:10:36;31.70;30.30
3504;DHT22;1766;53.490;10.174;2022-08-01T12:12:43;32.70;29.70
3504;DHT22;1766;53.490;10.174;2022-08-01T12:14:53;33.60;28.30
3504;DHT22;1766;53.490;10.174;2022-08-01T12:16:58;34.30;27.40
3504;DHT22;1766;53.490;10.174;2022-08-01T12:18:59;35.10;26.90
3504;DHT22;1766;53.490;10.174;2022-08-01T12:21:03;35.40;26.60
3504;DHT22;1766;53.490;10.174;2022-08-01T12:23:07;35.80;26.40
3504;DHT22;1766;53.490;10.174;2022-08-01T12:25:11;36.20;26.40
3504;DHT22;1766;53.490;10.174;2022-08-01T12:27:24;36.80;25.90
3504;DHT22;1766;53.490;10.174;2022-08-01T12:29:35;37.30;25.00
3504;DHT22;1766;53.490;10.174;2022-08-01T12:31:38;37.90;24.80
3504;DHT22;1766;53.490;10.174;2022-08-01T12:33:40;38.10;24.20
3504;DHT22;1766;53.490;10.174;2022-08-01T12:35:42;37.90;24.00
3504;DHT22;1766;53.490;10.174;2022-08-01T12:37:45;37.70;24.00
3504;DHT22;1766;53.490;10.174;2022-08-01T12:39:48;37.80;24.30
3504;DHT22;1766;53.490;10.174;2022-08-01T12:41:52;38.10;24.10
3504;DHT22;1766;53.490;10.174;2022-08-01T12:43:55;38.30;24.20
3504;DHT22;1766;53.490;10.174;2022-08-01T12:45:59;38.70;24.50
3504;DHT22;1766;53.490;10.174;2022-08-01T12:48:02;38.90;24.20
3504;DHT22;1766;53.490;10.174;2022-08-01T12:50:13;38.80;24.10
3504;DHT22;1766;53.490;10.174;2022-08-01T12:52:16;38.70;24.60
3504;DHT22;1766;53.490;10.174;2022-08-01T12:54:22;38.80;24.00
3504;DHT22;1766;53.490;10.174;2022-08-01T12:56:31;38.80;23.50
3504;DHT22;1766;53.490;10.174;2022-08-01T12:58:34;38.60;23.40
3504;DHT22;1766;53.490;10.174;2022-08-01T13:00:40;38.50;23.50
3504;DHT22;1766;53.490;10.174;2022-08-01T13:02:45;38.50;23.70
3504;DHT22;1766;53.490;10.174;2022-08-01T13:04:50;38.50;23.70
3504;DHT22;1766;53.490;10.174;2022-08-01T13:06:53;38.30;23.40
3504;DHT22;1766;53.490;10.174;2022-08-01T13:09:04;38.20;23.40
3504;DHT22;1766;53.490;10.174;2022-08-01T13:11:08;38.00;23.40
3504;DHT22;1766;53.490;10.174;2022-08-01T13:13:16;38.10;23.80
3504;DHT22;1766;53.490;10.174;2022-08-01T13:15:21;38.00;23.50
3504;DHT22;1766;53.490;10.174;2022-08-01T13:17:31;37.90;23.70
3504;DHT22;1766;53.490;10.174;2022-08-01T13:19:43;37.90;23.20
3504;DHT22;1766;53.490;10.174;2022-08-01T13:21:59;37.90;22.90
3504;DHT22;1766;53.490;10.174;2022-08-01T13:24:03;37.60;23.00
3504;DHT22;1766;53.490;10.174;2022-08-01T13:26:07;37.50;23.30
3504;DHT22;1766;53.490;10.174;2022-08-01T13:28:25;37.10;23.20